sensor_id;sensor_type;location;lat;lon;timestamp;P1;durP1;ratioP1;P2;durP2;ratioP2
15077;SDS011;7638;49.760;8.646;2024-01-07T00:02:13;10.83;;;6.17;;
15077;SDS011;7638;49.760;8.646;2024-01-07T00:04:39;9.77;;;6.10;;
15077;SDS011;7638;49.760;8.646;2024-01-07T00:07:06;9.67;;;5.53;;
15077;SDS011;7638;49.760;8.646;2024-01-07T00:09:32;10.47;;;6.20;;
15077;SDS011;7638;49.760;8.646;2024-01-07T00:11:58;9.00;;;5.90;;
15077;SDS011;7638;49.760;8.646;2024-01-07T00:14:24;9.80;;;5.57;;
15077;SDS011;7638;49.760;8.646;2024-01-07T00:16:50;8.97;;;6.03;;
15077;SDS011;7638;49.760;8.646;2024-01-07T00:19:16;11.53;;;5.80;;
15077;SDS011;7638;49.760;8.646;2024-01-07T00:21:41;9.37;;;4.83;;
15077;SDS011;7638;49.760;8.646;2024-01-07T00:24:07;8.80;;;5.53;;
15077;SDS011;7638;49.760;8.646;2024-01-07T00:26:33;7.50;;;5.10;;
15077;SDS011;7638;49.760;8.646;2024-01-07T00:28:59;7.93;;;4.63;;
15077;SDS011;7638;49.760;8.646;2024-01-07T00:31:25;5.83;;;4.10;;
15077;SDS011;7638;49.760;8.646;2024-01-07T00:33:51;9.90;;;5.70;;
15077;SDS011;7638;49.760;8.646;2024-01-07T00:36:18;9.07;;;5.10;;
15077;SDS011;7638;49.760;8.646;2024-01-07T00:38:45;8.17;;;4.63;;
15077;SDS011;7638;49.760;8.646;2024-01-07T00:41:10;9.13;;;4.93;;
15077;SDS011;7638;49.760;8.646;2024-01-07T00:43:37;7.40;;;4.73;;
15077;SDS011;7638;49.760;8.646;2024-01-07T00:46:03;6.57;;;4.37;;
15077;SDS011;7638;49.760;8.646;2024-01-07T00:48:29;8.93;;;4.40;;
15077;SDS011;7638;49.760;8.646;2024-01-07T00:50:55;8.97;;;4.87;;
15077;SDS011;7638;49.760;8.646;2024-01-07T00:53:21;9.77;;;5.00;;
15077;SDS011;7638;49.760;8.646;2024-01-07T00:55:47;6.57;;;4.63;;
15077;SDS011;7638;49.760;8.646;2024-01-07T00:58:13;7.00;;;4.60;;
15077;SDS011;7638;49.760;8.646;2024-01-07T01:00:39;7.87;;;5.03;;
15077;SDS011;7638;49.760;8.646;2024-01-07T01:03:05;6.93;;;4.00;;
15077;SDS011;7638;49.760;8.646;2024-01-07T01:05:31;6.33;;;4.27;;
15077;SDS011;7638;49.760;8.646;2024-01-07T01:07:57;7.07;;;4.53;;
15077;SDS011;7638;49.760;8.646;2024-01-07T01:10:23;6.30;;;4.10;;
15077;SDS011;7638;49.760;8.646;2024-01-07T01:12:49;6.97;;;4.73;;
15077;SDS011;7638;49.760;8.646;2024-01-07T01:15:17;6.30;;;4.27;;
15077;SDS011;7638;49.760;8.646;2024-01-07T01:17:43;4.67;;;3.70;;
15077;SDS011;7638;49.760;8.646;2024-01-07T01:20:09;6.90;;;4.43;;
15077;SDS011;7638;49.760;8.646;2024-01-07T01:22:35;4.80;;;3.70;;
15077;SDS011;7638;49.760;8.646;2024-01-07T01:25:01;6.57;;;4.70;;
15077;SDS011;7638;49.760;8.646;2024-01-07T01:27:28;5.40;;;3.87;;
15077;SDS011;7638;49.760;8.646;2024-01-07T01:29:54;6.10;;;3.83;;
15077;SDS011;7638;49.760;8.646;2024-01-07T01:32:20;5.23;;;4.03;;
15077;SDS011;7638;49.760;8.646;2024-01-07T01:34:46;5.73;;;4.13;;
15077;SDS011;7638;49.760;8.646;2024-01-07T01:37:12;5.87;;;4.27;;
15077;SDS011;7638;49.760;8.646;2024-01-07T01:39:41;6.57;;;4.13;;
15077;SDS011;7638;49.760;8.646;2024-01-07T01:42:07;8.77;;;3.93;;
15077;SDS011;7638;49.760;8.646;2024-01-07T01:44:33;4.47;;;3.53;;
15077;SDS011;7638;49.760;8.646;2024-01-07T01:46:59;5.13;;;3.63;;
15077;SDS011;7638;49.760;8.646;2024-01-07T01:49:26;4.53;;;3.27;;
15077;SDS011;7638;49.760;8.646;2024-01-07T01:51:52;8.60;;;3.63;;
15077;SDS011;7638;49.760;8.646;2024-01-07T01:54:18;10.20;;;3.73;;
15077;SDS011;7638;49.760;8.646;2024-01-07T01:56:45;5.30;;;3.83;;
15077;SDS011;7638;49.760;8.646;2024-01-07T01:59:11;4.90;;;3.43;;
15077;SDS011;7638;49.760;8.646;2024-01-07T02:01:38;4.70;;;3.47;;
15077;SDS011;7638;49.760;8.646;2024-01-07T02:04:04;5.87;;;4.77;;
15077;SDS011;7638;49.760;8.646;2024-01-07T02:06:30;6.87;;;5.17;;
15077;SDS011;7638;49.760;8.646;2024-01-07T02:08:56;9.77;;;3.43;;
15077;SDS011;7638;49.760;8.646;2024-01-07T02:11:22;5.20;;;3.77;;
15077;SDS011;7638;49.760;8.646;2024-01-07T02:13:48;4.77;;;3.33;;
15077;SDS011;7638;49.760;8.646;2024-01-07T02:16:14;6.67;;;4.00;;
15077;SDS011;7638;49.760;8.646;2024-01-07T02:18:41;4.57;;;3.23;;
15077;SDS011;7638;49.760;8.646;2024-01-07T02:21:08;7.83;;;4.07;;
15077;SDS011;7638;49.760;8.646;2024-01-07T02:23:34;4.90;;;3.43;;
15077;SDS011;7638;49.760;8.646;2024-01-07T02:26:00;4.50;;;3.50;;
15077;SDS011;7638;49.760;8.646;2024-01-07T02:28:27;6.50;;;4.80;;
15077;SDS011;7638;49.760;8.646;2024-01-07T02:30:53;4.53;;;3.37;;
15077;SDS011;7638;49.760;8.646;2024-01-07T02:33:19;6.37;;;3.80;;
15077;SDS011;7638;49.760;8.646;2024-01-07T02:35:44;7.37;;;3.30;;
15077;SDS011;7638;49.760;8.646;2024-01-07T02:38:11;4.90;;;3.50;;
15077;SDS011;7638;49.760;8.646;2024-01-07T02:40:37;5.03;;;3.40;;
15077;SDS011;7638;49.760;8.646;2024-01-07T02:43:03;4.43;;;3.03;;
15077;SDS011;7638;49.760;8.646;2024-01-07T02:45:29;5.00;;;3.83;;
15077;SDS011;7638;49.760;8.646;2024-01-07T02:47:54;6.30;;;3.73;;
15077;SDS011;7638;49.760;8.646;2024-01-07T02:50:20;5.13;;;3.20;;
15077;SDS011;7638;49.760;8.646;2024-01-07T02:52:47;5.00;;;3.40;;
15077;SDS011;7638;49.760;8.646;2024-01-07T02:55:13;4.87;;;3.37;;
15077;SDS011;7638;49.760;8.646;2024-01-07T02:57:39;6.13;;;3.87;;
15077;SDS011;7638;49.760;8.646;2024-01-07T03:00:05;6.33;;;4.00;;
15077;SDS011;7638;49.760;8.646;2024-01-07T03:02:31;4.73;;;3.40;;
15077;SDS011;7638;49.760;8.646;2024-01-07T03:04:57;5.93;;;3.97;;
15077;SDS011;7638;49.760;8.646;2024-01-07T03:07:23;4.97;;;3.43;;
15077;SDS011;7638;49.760;8.646;2024-01-07T03:09:49;6.37;;;3.77;;
15077;SDS011;7638;49.760;8.646;2024-01-07T03:12:15;4.40;;;3.40;;
15077;SDS011;7638;49.760;8.646;2024-01-07T03:14:41;4.70;;;3.40;;
15077;SDS011;7638;49.760;8.646;2024-01-07T03:17:07;5.20;;;3.40;;
15077;SDS011;7638;49.760;8.646;2024-01-07T03:19:33;4.27;;;3.00;;
15077;SDS011;7638;49.760;8.646;2024-01-07T03:21:59;4.63;;;3.63;;
15077;SDS011;7638;49.760;8.646;2024-01-07T03:24:25;8.07;;;4.57;;
15077;SDS011;7638;49.760;8.646;2024-01-07T03:26:51;5.17;;;3.80;;
15077;SDS011;7638;49.760;8.646;2024-01-07T03:29:17;6.23;;;3.33;;
15077;SDS011;7638;49.760;8.646;2024-01-07T03:31:43;7.77;;;3.57;;
15077;SDS011;7638;49.760;8.646;2024-01-07T03:34:09;4.00;;;2.97;;
15077;SDS011;7638;49.760;8.646;2024-01-07T03:36:35;4.23;;;3.23;;
15077;SDS011;7638;49.760;8.646;2024-01-07T03:39:01;4.33;;;3.50;;
15077;SDS011;7638;49.760;8.646;2024-01-07T03:41:27;5.10;;;3.57;;
15077;SDS011;7638;49.760;8.646;2024-01-07T03:43:53;5.77;;;3.87;;
15077;SDS011;7638;49.760;8.646;2024-01-07T03:46:19;5.63;;;3.60;;
15077;SDS011;7638;49.760;8.646;2024-01-07T03:48:45;4.53;;;3.07;;
15077;SDS011;7638;49.760;8.646;2024-01-07T03:51:11;4.57;;;3.73;;
15077;SDS011;7638;49.760;8.646;2024-01-07T03:53:37;4.33;;;3.37;;
15077;SDS011;7638;49.760;8.646;2024-01-07T03:56:03;5.03;;;3.30;;
15077;SDS011;7638;49.760;8.646;2024-01-07T03:58:29;5.17;;;3.63;;
15077;SDS011;7638;49.760;8.646;2024-01-07T04:00:55;4.67;;;3.60;;
15077;SDS011;7638;49.760;8.646;2024-01-07T04:03:21;4.67;;;3.40;;
15077;SDS011;7638;49.760;8.646;2024-01-07T04:05:47;4.03;;;3.17;;
15077;SDS011;7638;49.760;8.646;2024-01-07T04:08:13;3.77;;;3.10;;
15077;SDS011;7638;49.760;8.646;2024-01-07T04:10:40;6.03;;;3.70;;
15077;SDS011;7638;49.760;8.646;2024-01-07T04:13:06;5.47;;;3.87;;
15077;SDS011;7638;49.760;8.646;2024-01-07T04:15:33;3.33;;;2.83;;
15077;SDS011;7638;49.760;8.646;2024-01-07T04:18:02;5.23;;;3.00;;
15077;SDS011;7638;49.760;8.646;2024-01-07T04:20:28;4.27;;;3.03;;
15077;SDS011;7638;49.760;8.646;2024-01-07T04:22:54;4.23;;;3.07;;
15077;SDS011;7638;49.760;8.646;2024-01-07T04:25:20;4.03;;;3.10;;
15077;SDS011;7638;49.760;8.646;2024-01-07T04:27:46;4.33;;;3.20;;
15077;SDS011;7638;49.760;8.646;2024-01-07T04:30:12;7.10;;;3.33;;
15077;SDS011;7638;49.760;8.646;2024-01-07T04:32:38;7.67;;;3.57;;
15077;SDS011;7638;49.760;8.646;2024-01-07T04:35:04;5.77;;;3.50;;
15077;SDS011;7638;49.760;8.646;2024-01-07T04:37:31;5.83;;;3.00;;
15077;SDS011;7638;49.760;8.646;2024-01-07T04:39:57;7.07;;;3.37;;
15077;SDS011;7638;49.760;8.646;2024-01-07T04:42:23;5.13;;;3.67;;
15077;SDS011;7638;49.760;8.646;2024-01-07T04:44:49;5.93;;;3.77;;
15077;SDS011;7638;49.760;8.646;2024-01-07T04:49:50;6.53;;;3.43;;
15077;SDS011;7638;49.760;8.646;2024-01-07T04:52:16;7.93;;;3.80;;
15077;SDS011;7638;49.760;8.646;2024-01-07T04:54:42;6.20;;;3.57;;
15077;SDS011;7638;49.760;8.646;2024-01-07T04:57:08;5.13;;;3.50;;
15077;SDS011;7638;49.760;8.646;2024-01-07T04:59:34;6.40;;;3.43;;
15077;SDS011;7638;49.760;8.646;2024-01-07T05:02:00;4.70;;;3.73;;
15077;SDS011;7638;49.760;8.646;2024-01-07T05:04:26;5.87;;;3.63;;
15077;SDS011;7638;49.760;8.646;2024-01-07T05:06:52;6.80;;;3.93;;
15077;SDS011;7638;49.760;8.646;2024-01-07T05:09:17;9.27;;;4.10;;
15077;SDS011;7638;49.760;8.646;2024-01-07T05:11:43;4.47;;;2.97;;
15077;SDS011;7638;49.760;8.646;2024-01-07T05:14:10;5.03;;;3.60;;
15077;SDS011;7638;49.760;8.646;2024-01-07T05:16:37;5.93;;;3.50;;
15077;SDS011;7638;49.760;8.646;2024-01-07T05:19:02;6.03;;;4.10;;
15077;SDS011;7638;49.760;8.646;2024-01-07T05:21:29;7.33;;;4.03;;
15077;SDS011;7638;49.760;8.646;2024-01-07T05:23:55;8.57;;;4.23;;
15077;SDS011;7638;49.760;8.646;2024-01-07T05:26:21;6.20;;;4.03;;
15077;SDS011;7638;49.760;8.646;2024-01-07T05:28:47;5.50;;;3.83;;
15077;SDS011;7638;49.760;8.646;2024-01-07T05:31:17;7.20;;;4.77;;
15077;SDS011;7638;49.760;8.646;2024-01-07T05:33:43;6.57;;;4.47;;
15077;SDS011;7638;49.760;8.646;2024-01-07T05:36:10;7.33;;;5.20;;
15077;SDS011;7638;49.760;8.646;2024-01-07T05:38:36;11.30;;;5.17;;
15077;SDS011;7638;49.760;8.646;2024-01-07T05:41:02;6.10;;;5.17;;
15077;SDS011;7638;49.760;8.646;2024-01-07T05:43:28;5.53;;;4.07;;
15077;SDS011;7638;49.760;8.646;2024-01-07T05:45:53;8.00;;;4.90;;
15077;SDS011;7638;49.760;8.646;2024-01-07T05:48:23;7.50;;;5.27;;
15077;SDS011;7638;49.760;8.646;2024-01-07T05:50:49;6.40;;;4.53;;
15077;SDS011;7638;49.760;8.646;2024-01-07T05:53:16;8.50;;;4.73;;
15077;SDS011;7638;49.760;8.646;2024-01-07T05:55:42;7.70;;;4.57;;
15077;SDS011;7638;49.760;8.646;2024-01-07T05:58:08;11.03;;;5.00;;
15077;SDS011;7638;49.760;8.646;2024-01-07T06:00:34;9.83;;;4.60;;
15077;SDS011;7638;49.760;8.646;2024-01-07T06:02:59;5.43;;;4.00;;
15077;SDS011;7638;49.760;8.646;2024-01-07T06:05:26;7.87;;;5.27;;
15077;SDS011;7638;49.760;8.646;2024-01-07T06:07:52;8.47;;;5.67;;
15077;SDS011;7638;49.760;8.646;2024-01-07T06:10:18;6.80;;;5.10;;
15077;SDS011;7638;49.760;8.646;2024-01-07T06:12:44;9.00;;;5.57;;
15077;SDS011;7638;49.760;8.646;2024-01-07T06:15:10;12.00;;;6.57;;
15077;SDS011;7638;49.760;8.646;2024-01-07T06:17:36;6.77;;;4.87;;
15077;SDS011;7638;49.760;8.646;2024-01-07T06:20:02;8.87;;;5.33;;
15077;SDS011;7638;49.760;8.646;2024-01-07T06:22:28;7.77;;;5.90;;
15077;SDS011;7638;49.760;8.646;2024-01-07T06:24:54;10.47;;;5.87;;
15077;SDS011;7638;49.760;8.646;2024-01-07T06:27:20;10.73;;;6.07;;
15077;SDS011;7638;49.760;8.646;2024-01-07T06:29:45;10.47;;;7.07;;
15077;SDS011;7638;49.760;8.646;2024-01-07T06:32:12;9.77;;;5.73;;
15077;SDS011;7638;49.760;8.646;2024-01-07T06:34:38;10.13;;;7.27;;
15077;SDS011;7638;49.760;8.646;2024-01-07T06:37:05;10.80;;;6.40;;
15077;SDS011;7638;49.760;8.646;2024-01-07T06:39:32;8.10;;;5.37;;
15077;SDS011;7638;49.760;8.646;2024-01-07T06:41:59;8.53;;;5.77;;
15077;SDS011;7638;49.760;8.646;2024-01-07T06:44:25;10.30;;;7.00;;
15077;SDS011;7638;49.760;8.646;2024-01-07T06:46:51;10.30;;;6.07;;
15077;SDS011;7638;49.760;8.646;2024-01-07T06:49:17;8.77;;;6.23;;
15077;SDS011;7638;49.760;8.646;2024-01-07T06:51:43;8.60;;;6.03;;
15077;SDS011;7638;49.760;8.646;2024-01-07T06:54:09;7.73;;;5.70;;
15077;SDS011;7638;49.760;8.646;2024-01-07T06:56:35;7.97;;;6.03;;
15077;SDS011;7638;49.760;8.646;2024-01-07T06:59:01;9.33;;;6.07;;
15077;SDS011;7638;49.760;8.646;2024-01-07T07:01:27;8.57;;;5.80;;
15077;SDS011;7638;49.760;8.646;2024-01-07T07:03:53;8.90;;;6.07;;
15077;SDS011;7638;49.760;8.646;2024-01-07T07:06:19;7.73;;;5.63;;
15077;SDS011;7638;49.760;8.646;2024-01-07T07:08:45;9.37;;;5.73;;
15077;SDS011;7638;49.760;8.646;2024-01-07T07:11:11;10.00;;;5.87;;
15077;SDS011;7638;49.760;8.646;2024-01-07T07:13:37;9.63;;;5.20;;
15077;SDS011;7638;49.760;8.646;2024-01-07T07:16:03;9.90;;;5.53;;
15077;SDS011;7638;49.760;8.646;2024-01-07T07:18:29;9.13;;;5.23;;
15077;SDS011;7638;49.760;8.646;2024-01-07T07:20:55;7.53;;;5.27;;
15077;SDS011;7638;49.760;8.646;2024-01-07T07:23:21;10.90;;;5.07;;
15077;SDS011;7638;49.760;8.646;2024-01-07T07:25:47;6.93;;;4.83;;
15077;SDS011;7638;49.760;8.646;2024-01-07T07:28:13;9.23;;;5.67;;
15077;SDS011;7638;49.760;8.646;2024-01-07T07:30:39;8.87;;;5.23;;
15077;SDS011;7638;49.760;8.646;2024-01-07T07:33:05;9.17;;;5.37;;
15077;SDS011;7638;49.760;8.646;2024-01-07T07:35:31;8.87;;;5.63;;
15077;SDS011;7638;49.760;8.646;2024-01-07T07:37:57;9.03;;;5.80;;
15077;SDS011;7638;49.760;8.646;2024-01-07T07:40:23;7.33;;;5.20;;
15077;SDS011;7638;49.760;8.646;2024-01-07T07:42:49;8.20;;;4.50;;
15077;SDS011;7638;49.760;8.646;2024-01-07T07:45:15;9.00;;;5.57;;
15077;SDS011;7638;49.760;8.646;2024-01-07T07:47:40;11.30;;;6.60;;
15077;SDS011;7638;49.760;8.646;2024-01-07T07:50:09;6.90;;;4.87;;
15077;SDS011;7638;49.760;8.646;2024-01-07T07:52:35;8.50;;;5.77;;
15077;SDS011;7638;49.760;8.646;2024-01-07T07:55:01;7.63;;;5.20;;
15077;SDS011;7638;49.760;8.646;2024-01-07T07:57:27;6.80;;;5.03;;
15077;SDS011;7638;49.760;8.646;2024-01-07T07:59:53;7.13;;;4.13;;
15077;SDS011;7638;49.760;8.646;2024-01-07T08:02:20;5.87;;;4.67;;
15077;SDS011;7638;49.760;8.646;2024-01-07T08:04:46;7.17;;;4.57;;
15077;SDS011;7638;49.760;8.646;2024-01-07T08:07:12;7.83;;;4.37;;
15077;SDS011;7638;49.760;8.646;2024-01-07T08:09:38;7.87;;;5.23;;
15077;SDS011;7638;49.760;8.646;2024-01-07T08:12:05;8.53;;;4.80;;
15077;SDS011;7638;49.760;8.646;2024-01-07T08:14:31;6.20;;;4.53;;
15077;SDS011;7638;49.760;8.646;2024-01-07T08:16:57;7.83;;;4.80;;
15077;SDS011;7638;49.760;8.646;2024-01-07T08:19:23;7.37;;;4.20;;
15077;SDS011;7638;49.760;8.646;2024-01-07T08:21:49;7.43;;;5.17;;
15077;SDS011;7638;49.760;8.646;2024-01-07T08:24:15;8.20;;;4.57;;
15077;SDS011;7638;49.760;8.646;2024-01-07T08:26:41;5.37;;;4.20;;
15077;SDS011;7638;49.760;8.646;2024-01-07T08:29:07;7.57;;;4.60;;
15077;SDS011;7638;49.760;8.646;2024-01-07T08:31:33;8.37;;;4.03;;
15077;SDS011;7638;49.760;8.646;2024-01-07T08:33:59;7.83;;;4.70;;
15077;SDS011;7638;49.760;8.646;2024-01-07T08:36:25;8.37;;;5.27;;
15077;SDS011;7638;49.760;8.646;2024-01-07T08:38:51;8.57;;;4.60;;
15077;SDS011;7638;49.760;8.646;2024-01-07T08:41:17;8.73;;;4.73;;
15077;SDS011;7638;49.760;8.646;2024-01-07T08:43:43;6.43;;;4.60;;
15077;SDS011;7638;49.760;8.646;2024-01-07T08:46:10;6.50;;;4.50;;
15077;SDS011;7638;49.760;8.646;2024-01-07T08:48:36;7.83;;;5.43;;
15077;SDS011;7638;49.760;8.646;2024-01-07T08:51:03;7.40;;;4.53;;
15077;SDS011;7638;49.760;8.646;2024-01-07T08:53:29;9.13;;;5.27;;
15077;SDS011;7638;49.760;8.646;2024-01-07T08:55:55;8.07;;;4.40;;
15077;SDS011;7638;49.760;8.646;2024-01-07T08:58:21;6.73;;;4.57;;
15077;SDS011;7638;49.760;8.646;2024-01-07T09:00:47;8.60;;;4.70;;
15077;SDS011;7638;49.760;8.646;2024-01-07T09:03:13;8.13;;;5.37;;
15077;SDS011;7638;49.760;8.646;2024-01-07T09:05:39;6.93;;;4.50;;
15077;SDS011;7638;49.760;8.646;2024-01-07T09:08:05;8.13;;;4.97;;
15077;SDS011;7638;49.760;8.646;2024-01-07T09:10:31;9.43;;;4.67;;
15077;SDS011;7638;49.760;8.646;2024-01-07T09:12:58;8.57;;;5.70;;
15077;SDS011;7638;49.760;8.646;2024-01-07T09:15:24;8.43;;;4.83;;
15077;SDS011;7638;49.760;8.646;2024-01-07T09:17:51;9.87;;;5.50;;
15077;SDS011;7638;49.760;8.646;2024-01-07T09:20:17;8.93;;;5.13;;
15077;SDS011;7638;49.760;8.646;2024-01-07T09:22:43;9.00;;;5.33;;
15077;SDS011;7638;49.760;8.646;2024-01-07T09:25:09;7.03;;;4.90;;
15077;SDS011;7638;49.760;8.646;2024-01-07T09:27:36;7.30;;;5.00;;
15077;SDS011;7638;49.760;8.646;2024-01-07T09:30:02;7.47;;;4.90;;
15077;SDS011;7638;49.760;8.646;2024-01-07T09:32:28;5.40;;;4.33;;
15077;SDS011;7638;49.760;8.646;2024-01-07T09:34:54;9.57;;;5.37;;
15077;SDS011;7638;49.760;8.646;2024-01-07T09:37:20;7.43;;;4.53;;
15077;SDS011;7638;49.760;8.646;2024-01-07T09:39:46;5.73;;;4.13;;
15077;SDS011;7638;49.760;8.646;2024-01-07T09:42:14;5.43;;;3.93;;
15077;SDS011;7638;49.760;8.646;2024-01-07T09:44:40;7.97;;;5.60;;
15077;SDS011;7638;49.760;8.646;2024-01-07T09:47:07;6.53;;;4.30;;
15077;SDS011;7638;49.760;8.646;2024-01-07T09:49:35;5.70;;;3.77;;
15077;SDS011;7638;49.760;8.646;2024-01-07T09:52:01;6.80;;;4.53;;
15077;SDS011;7638;49.760;8.646;2024-01-07T09:54:29;5.23;;;4.30;;
15077;SDS011;7638;49.760;8.646;2024-01-07T09:56:58;7.63;;;3.87;;
15077;SDS011;7638;49.760;8.646;2024-01-07T09:59:27;7.07;;;4.23;;
15077;SDS011;7638;49.760;8.646;2024-01-07T10:01:54;7.77;;;5.10;;
15077;SDS011;7638;49.760;8.646;2024-01-07T10:04:20;5.97;;;4.23;;
15077;SDS011;7638;49.760;8.646;2024-01-07T10:06:49;6.27;;;4.50;;
15077;SDS011;7638;49.760;8.646;2024-01-07T10:09:16;7.97;;;4.73;;
15077;SDS011;7638;49.760;8.646;2024-01-07T10:11:43;5.77;;;4.93;;
15077;SDS011;7638;49.760;8.646;2024-01-07T10:14:09;5.50;;;3.90;;
15077;SDS011;7638;49.760;8.646;2024-01-07T10:16:35;6.10;;;4.27;;
15077;SDS011;7638;49.760;8.646;2024-01-07T10:19:01;6.20;;;4.10;;
15077;SDS011;7638;49.760;8.646;2024-01-07T10:21:27;6.97;;;4.97;;
15077;SDS011;7638;49.760;8.646;2024-01-07T10:26:35;5.90;;;3.40;;
15077;SDS011;7638;49.760;8.646;2024-01-07T10:29:01;5.17;;;4.20;;
15077;SDS011;7638;49.760;8.646;2024-01-07T10:31:27;5.23;;;3.57;;
15077;SDS011;7638;49.760;8.646;2024-01-07T10:33:53;4.40;;;3.70;;
15077;SDS011;7638;49.760;8.646;2024-01-07T10:36:18;4.83;;;3.37;;
15077;SDS011;7638;49.760;8.646;2024-01-07T10:38:46;5.67;;;3.90;;
15077;SDS011;7638;49.760;8.646;2024-01-07T10:41:12;7.40;;;4.57;;
15077;SDS011;7638;49.760;8.646;2024-01-07T10:43:40;4.33;;;3.60;;
15077;SDS011;7638;49.760;8.646;2024-01-07T10:46:07;6.43;;;4.10;;
15077;SDS011;7638;49.760;8.646;2024-01-07T10:48:36;7.73;;;4.07;;
15077;SDS011;7638;49.760;8.646;2024-01-07T10:51:06;5.53;;;4.03;;
15077;SDS011;7638;49.760;8.646;2024-01-07T10:53:33;6.27;;;4.00;;
15077;SDS011;7638;49.760;8.646;2024-01-07T10:56:00;5.20;;;4.13;;
15077;SDS011;7638;49.760;8.646;2024-01-07T10:58:26;3.80;;;3.43;;
15077;SDS011;7638;49.760;8.646;2024-01-07T11:00:52;6.53;;;3.90;;
15077;SDS011;7638;49.760;8.646;2024-01-07T11:03:27;4.30;;;3.50;;
15077;SDS011;7638;49.760;8.646;2024-01-07T11:05:59;5.67;;;4.00;;
15077;SDS011;7638;49.760;8.646;2024-01-07T11:11:15;5.47;;;4.33;;
15077;SDS011;7638;49.760;8.646;2024-01-07T11:13:41;5.13;;;3.80;;
15077;SDS011;7638;49.760;8.646;2024-01-07T11:16:08;6.80;;;4.93;;
15077;SDS011;7638;49.760;8.646;2024-01-07T11:18:37;5.73;;;4.63;;
15077;SDS011;7638;49.760;8.646;2024-01-07T11:21:05;4.33;;;3.83;;
15077;SDS011;7638;49.760;8.646;2024-01-07T11:23:35;6.13;;;4.20;;
15077;SDS011;7638;49.760;8.646;2024-01-07T11:26:02;5.70;;;3.47;;
15077;SDS011;7638;49.760;8.646;2024-01-07T11:31:14;6.20;;;4.20;;
15077;SDS011;7638;49.760;8.646;2024-01-07T11:33:47;5.27;;;3.90;;
15077;SDS011;7638;49.760;8.646;2024-01-07T11:36:14;8.27;;;4.87;;
15077;SDS011;7638;49.760;8.646;2024-01-07T11:38:41;5.80;;;4.10;;
15077;SDS011;7638;49.760;8.646;2024-01-07T11:41:07;6.60;;;4.37;;
15077;SDS011;7638;49.760;8.646;2024-01-07T11:43:35;6.17;;;3.90;;
15077;SDS011;7638;49.760;8.646;2024-01-07T11:46:01;6.23;;;3.93;;
15077;SDS011;7638;49.760;8.646;2024-01-07T11:48:26;6.60;;;4.00;;
15077;SDS011;7638;49.760;8.646;2024-01-07T11:50:52;6.20;;;4.57;;
15077;SDS011;7638;49.760;8.646;2024-01-07T11:53:18;5.40;;;3.80;;
15077;SDS011;7638;49.760;8.646;2024-01-07T11:55:45;6.67;;;4.07;;
15077;SDS011;7638;49.760;8.646;2024-01-07T11:58:11;6.27;;;3.60;;
15077;SDS011;7638;49.760;8.646;2024-01-07T12:00:36;8.10;;;4.40;;
15077;SDS011;7638;49.760;8.646;2024-01-07T12:03:03;6.77;;;3.97;;
15077;SDS011;7638;49.760;8.646;2024-01-07T12:05:29;5.73;;;3.93;;
15077;SDS011;7638;49.760;8.646;2024-01-07T12:07:55;8.47;;;4.13;;
15077;SDS011;7638;49.760;8.646;2024-01-07T12:10:22;6.37;;;3.90;;
15077;SDS011;7638;49.760;8.646;2024-01-07T12:12:48;6.70;;;4.27;;
15077;SDS011;7638;49.760;8.646;2024-01-07T12:15:15;5.47;;;4.10;;
15077;SDS011;7638;49.760;8.646;2024-01-07T12:17:42;6.10;;;4.17;;
15077;SDS011;7638;49.760;8.646;2024-01-07T12:20:08;8.03;;;5.00;;
15077;SDS011;7638;49.760;8.646;2024-01-07T12:22:38;9.70;;;4.77;;
15077;SDS011;7638;49.760;8.646;2024-01-07T12:25:07;6.40;;;3.63;;
15077;SDS011;7638;49.760;8.646;2024-01-07T12:27:33;5.40;;;4.03;;
15077;SDS011;7638;49.760;8.646;2024-01-07T12:30:03;4.90;;;3.97;;
15077;SDS011;7638;49.760;8.646;2024-01-07T12:32:30;5.03;;;4.17;;
15077;SDS011;7638;49.760;8.646;2024-01-07T12:34:57;8.20;;;4.90;;
15077;SDS011;7638;49.760;8.646;2024-01-07T12:37:25;7.37;;;4.63;;
15077;SDS011;7638;49.760;8.646;2024-01-07T12:39:52;9.53;;;4.30;;
15077;SDS011;7638;49.760;8.646;2024-01-07T12:42:17;12.27;;;5.40;;
15077;SDS011;7638;49.760;8.646;2024-01-07T12:44:45;8.30;;;4.73;;
15077;SDS011;7638;49.760;8.646;2024-01-07T12:47:10;7.70;;;4.70;;
15077;SDS011;7638;49.760;8.646;2024-01-07T12:49:36;6.93;;;4.70;;
15077;SDS011;7638;49.760;8.646;2024-01-07T12:52:02;5.57;;;4.07;;
15077;SDS011;7638;49.760;8.646;2024-01-07T12:54:28;4.93;;;3.63;;
15077;SDS011;7638;49.760;8.646;2024-01-07T12:56:54;6.93;;;4.40;;
15077;SDS011;7638;49.760;8.646;2024-01-07T12:59:20;7.83;;;3.80;;
15077;SDS011;7638;49.760;8.646;2024-01-07T13:01:46;5.77;;;4.27;;
15077;SDS011;7638;49.760;8.646;2024-01-07T13:04:12;6.97;;;4.00;;
15077;SDS011;7638;49.760;8.646;2024-01-07T13:06:39;5.63;;;3.90;;
15077;SDS011;7638;49.760;8.646;2024-01-07T13:09:05;8.17;;;5.07;;
15077;SDS011;7638;49.760;8.646;2024-01-07T13:11:31;7.33;;;4.17;;
15077;SDS011;7638;49.760;8.646;2024-01-07T13:13:57;5.97;;;3.63;;
15077;SDS011;7638;49.760;8.646;2024-01-07T13:16:25;6.73;;;4.07;;
15077;SDS011;7638;49.760;8.646;2024-01-07T13:18:52;8.07;;;4.43;;
15077;SDS011;7638;49.760;8.646;2024-01-07T13:21:18;7.77;;;3.67;;
15077;SDS011;7638;49.760;8.646;2024-01-07T13:23:45;7.57;;;4.27;;
15077;SDS011;7638;49.760;8.646;2024-01-07T13:26:12;5.73;;;3.33;;
15077;SDS011;7638;49.760;8.646;2024-01-07T13:28:38;5.37;;;3.73;;
15077;SDS011;7638;49.760;8.646;2024-01-07T13:31:04;6.00;;;3.77;;
15077;SDS011;7638;49.760;8.646;2024-01-07T13:33:31;4.97;;;3.70;;
15077;SDS011;7638;49.760;8.646;2024-01-07T13:35:57;6.67;;;3.90;;
15077;SDS011;7638;49.760;8.646;2024-01-07T13:38:23;5.70;;;4.03;;
15077;SDS011;7638;49.760;8.646;2024-01-07T13:40:50;4.87;;;3.70;;
15077;SDS011;7638;49.760;8.646;2024-01-07T13:43:16;6.63;;;4.27;;
15077;SDS011;7638;49.760;8.646;2024-01-07T13:45:42;6.50;;;3.73;;
15077;SDS011;7638;49.760;8.646;2024-01-07T13:48:08;4.30;;;3.50;;
15077;SDS011;7638;49.760;8.646;2024-01-07T13:50:34;5.17;;;3.27;;
15077;SDS011;7638;49.760;8.646;2024-01-07T13:53:01;6.63;;;4.00;;
15077;SDS011;7638;49.760;8.646;2024-01-07T13:55:27;5.27;;;3.83;;
15077;SDS011;7638;49.760;8.646;2024-01-07T13:57:53;7.43;;;4.47;;
15077;SDS011;7638;49.760;8.646;2024-01-07T14:00:20;4.57;;;3.37;;
15077;SDS011;7638;49.760;8.646;2024-01-07T14:02:46;6.00;;;4.23;;
15077;SDS011;7638;49.760;8.646;2024-01-07T14:05:14;8.77;;;5.50;;
15077;SDS011;7638;49.760;8.646;2024-01-07T14:07:40;5.93;;;4.27;;
15077;SDS011;7638;49.760;8.646;2024-01-07T14:10:06;8.07;;;4.60;;
15077;SDS011;7638;49.760;8.646;2024-01-07T14:12:33;6.33;;;4.07;;
15077;SDS011;7638;49.760;8.646;2024-01-07T14:14:59;6.23;;;4.37;;
15077;SDS011;7638;49.760;8.646;2024-01-07T14:17:25;6.90;;;4.23;;
15077;SDS011;7638;49.760;8.646;2024-01-07T14:19:51;7.57;;;4.53;;
15077;SDS011;7638;49.760;8.646;2024-01-07T14:22:19;4.70;;;3.40;;
15077;SDS011;7638;49.760;8.646;2024-01-07T14:24:45;5.97;;;3.30;;
15077;SDS011;7638;49.760;8.646;2024-01-07T14:27:11;6.07;;;3.83;;
15077;SDS011;7638;49.760;8.646;2024-01-07T14:29:37;6.20;;;3.97;;
15077;SDS011;7638;49.760;8.646;2024-01-07T14:32:06;6.80;;;3.13;;
15077;SDS011;7638;49.760;8.646;2024-01-07T14:34:32;6.70;;;4.07;;
15077;SDS011;7638;49.760;8.646;2024-01-07T14:36:59;7.20;;;4.10;;
15077;SDS011;7638;49.760;8.646;2024-01-07T14:39:25;6.23;;;3.47;;
15077;SDS011;7638;49.760;8.646;2024-01-07T14:41:51;5.07;;;3.47;;
15077;SDS011;7638;49.760;8.646;2024-01-07T14:44:18;4.00;;;3.03;;
15077;SDS011;7638;49.760;8.646;2024-01-07T14:46:44;5.73;;;3.47;;
15077;SDS011;7638;49.760;8.646;2024-01-07T14:49:10;7.53;;;4.10;;
15077;SDS011;7638;49.760;8.646;2024-01-07T14:51:36;7.87;;;3.47;;
15077;SDS011;7638;49.760;8.646;2024-01-07T14:54:02;6.17;;;3.40;;
15077;SDS011;7638;49.760;8.646;2024-01-07T14:56:28;6.93;;;4.30;;
15077;SDS011;7638;49.760;8.646;2024-01-07T14:58:54;4.83;;;3.60;;
15077;SDS011;7638;49.760;8.646;2024-01-07T15:01:20;4.93;;;3.73;;
15077;SDS011;7638;49.760;8.646;2024-01-07T15:03:47;5.33;;;4.00;;
15077;SDS011;7638;49.760;8.646;2024-01-07T15:06:13;4.00;;;3.10;;